createdAt,value
2022-08-28T00:00:16.216Z,100292.69
2022-08-28T00:02:45.685Z,100297.63
2022-08-28T00:05:16.316Z,100300.06
2022-08-28T00:07:47.770Z,100301.34
2022-08-28T00:10:18.496Z,100311.81
2022-08-28T00:12:49.337Z,100311.88
2022-08-28T00:15:22.083Z,100301.69
2022-08-28T00:17:50.900Z,100300.38
2022-08-28T00:20:20.976Z,100300.97
2022-08-28T00:22:50.003Z,100307.88
2022-08-28T00:25:24.218Z,100304.44
2022-08-28T00:27:55.057Z,100300.78
2022-08-28T00:30:36.562Z,100296.22
2022-08-28T00:33:12.680Z,100300.84
2022-08-28T00:35:42.359Z,100300.47
2022-08-28T00:38:12.647Z,100300.03
2022-08-28T00:40:44.564Z,100305.69
2022-08-28T00:43:25.371Z,100305.59
2022-08-28T00:45:53.841Z,100299.88
2022-08-28T00:48:22.038Z,100294.56
2022-08-28T00:51:09.020Z,100296.47
2022-08-28T00:53:37.651Z,100294.25
2022-08-28T00:56:12.903Z,100292.19
2022-08-28T00:58:44.876Z,100298.06
2022-08-28T01:01:14.168Z,100301.09
2022-08-28T01:03:43.739Z,100298.06
2022-08-28T01:06:15.729Z,100293.78
2022-08-28T01:08:46.232Z,100297.88
2022-08-28T01:11:20.566Z,100295.22
2022-08-28T01:13:49.789Z,100290.34
2022-08-28T01:16:19.527Z,100292.38
2022-08-28T01:18:49.779Z,100300.06
2022-08-28T01:21:32.491Z,100299.84
2022-08-28T01:24:10.376Z,100294.56
2022-08-28T01:26:39.006Z,100297.88
2022-08-28T01:29:08.673Z,100301.97
2022-08-28T01:31:38.776Z,100304.63
2022-08-28T01:34:09.449Z,100307.09
2022-08-28T01:36:39.174Z,100315.53
2022-08-28T01:39:15.913Z,100321.28
2022-08-28T01:41:46.895Z,100314.41
2022-08-28T01:44:17.867Z,100321.28
2022-08-28T01:46:47.162Z,100315.03
2022-08-28T01:49:15.430Z,100314.59
2022-08-28T01:51:43.757Z,100317.44
2022-08-28T01:54:12.736Z,100314.78
2022-08-28T01:56:42.506Z,100318.78
2022-08-28T01:59:12.790Z,100313.09
2022-08-28T02:02:00.312Z,100316.00
2022-08-28T02:04:31.784Z,100318.09
2022-08-28T02:07:00.999Z,100311.81
2022-08-28T02:09:29.219Z,100308.34
2022-08-28T02:11:57.754Z,100303.63
2022-08-28T02:14:25.949Z,100311.88
2022-08-28T02:16:54.277Z,100300.88
2022-08-28T02:19:22.742Z,100306.06
2022-08-28T02:21:51.296Z,100299.31
2022-08-28T02:24:20.296Z,100296.41
2022-08-28T02:26:48.607Z,100303.75
2022-08-28T02:29:17.239Z,100303.94
2022-08-28T02:31:45.388Z,100300.28
2022-08-28T02:34:13.574Z,100295.94
2022-08-28T02:36:42.678Z,100296.97
2022-08-28T02:39:11.458Z,100295.66
2022-08-28T02:41:40.227Z,100293.19
2022-08-28T02:44:08.428Z,100290.63
2022-08-28T02:46:36.870Z,100289.63
2022-08-28T02:49:05.109Z,100300.31
2022-08-28T02:51:33.606Z,100299.72
2022-08-28T02:54:02.489Z,100297.88
2022-08-28T02:56:31.142Z,100301.34
2022-08-28T02:58:59.354Z,100298.69
2022-08-28T03:01:27.866Z,100292.38
2022-08-28T03:03:56.086Z,100292.78
2022-08-28T03:06:24.372Z,100296.97
2022-08-28T03:08:52.649Z,100288.84
2022-08-28T03:11:20.983Z,100288.66
2022-08-28T03:13:50.282Z,100291.13
2022-08-28T03:16:18.835Z,100290.84
2022-08-28T03:18:47.424Z,100297.34
2022-08-28T03:21:15.655Z,100289.78
2022-08-28T03:23:43.808Z,100288.16
2022-08-28T03:26:18.514Z,100291.06
2022-08-28T03:28:49.847Z,100284.75
2022-08-28T03:31:21.292Z,100280.56
2022-08-28T03:33:50.523Z,100276.75
2022-08-28T03:36:23.429Z,100286.97
2022-08-28T03:38:54.351Z,100283.94
2022-08-28T03:41:24.965Z,100278.47
2022-08-28T03:43:53.211Z,100283.31
2022-08-28T03:46:23.968Z,100277.56
2022-08-28T03:48:54.171Z,100284.31
2022-08-28T03:51:29.351Z,100278.84
2022-08-28T03:54:01.986Z,100280.59
2022-08-28T03:56:31.739Z,100293.38
2022-08-28T03:59:02.299Z,100289.19
2022-08-28T04:01:31.186Z,100294.84
2022-08-28T04:03:59.784Z,100296.84
2022-08-28T04:06:28.113Z,100289.09
2022-08-28T04:09:00.228Z,100298.41
2022-08-28T04:11:29.231Z,100297.88
2022-08-28T04:13:57.954Z,100292.13
2022-08-28T04:16:26.287Z,100288.66
2022-08-28T04:18:54.798Z,100294.38
2022-08-28T04:21:25.629Z,100299.22
2022-08-28T04:23:55.773Z,100298.03
2022-08-28T04:26:26.222Z,100292.28
2022-08-28T04:28:56.048Z,100302.25
2022-08-28T04:31:32.144Z,100303.63
2022-08-28T04:34:07.285Z,100302.25
2022-08-28T04:36:36.426Z,100293.31
2022-08-28T04:39:08.561Z,100292.47
2022-08-28T04:41:38.668Z,100293.31
2022-08-28T04:44:10.545Z,100297.75
2022-08-28T04:46:38.728Z,100292.28
2022-08-28T04:49:07.289Z,100286.81
2022-08-28T04:51:38.850Z,100294.84
2022-08-28T04:54:13.011Z,100293.94
2022-08-28T04:56:41.718Z,100294.66
2022-08-28T04:59:11.740Z,100301.69
2022-08-28T05:01:42.653Z,100293.47
2022-08-28T05:04:12.335Z,100300.06
2022-08-28T05:06:46.330Z,100303.63
2022-08-28T05:09:17.983Z,100304.53
2022-08-28T05:11:48.011Z,100312.38
2022-08-28T05:14:16.641Z,100316.47
2022-08-28T05:16:51.123Z,100312.91
2022-08-28T05:19:21.019Z,100311.47
2022-08-28T05:21:49.698Z,100308.63
2022-08-28T05:24:24.449Z,100310.09
2022-08-28T05:26:52.668Z,100305.16
2022-08-28T05:29:20.864Z,100312.66
2022-08-28T05:31:52.115Z,100307.22
2022-08-28T05:34:21.100Z,100324.38
2022-08-28T05:36:49.357Z,100325.81
2022-08-28T05:39:18.091Z,100313.16
2022-08-28T05:41:46.657Z,100323.31
2022-08-28T05:44:16.826Z,100324.25
2022-08-28T05:46:48.108Z,100327.06
2022-08-28T05:49:18.404Z,100328.88
2022-08-28T05:51:47.975Z,100330.25
2022-08-28T05:54:17.127Z,100324.56
2022-08-28T05:56:46.912Z,100333.09
2022-08-28T05:59:16.525Z,100341.75
2022-08-28T06:01:47.593Z,100341.16
2022-08-28T06:04:17.897Z,100342.22
2022-08-28T06:06:47.890Z,100349.84
2022-08-28T06:09:30.083Z,100347.84
2022-08-28T06:12:02.150Z,100343.19
2022-08-28T06:14:31.499Z,100356.34
2022-08-28T06:17:01.747Z,100346.16
2022-08-28T06:19:32.431Z,100345.31
2022-08-28T06:22:06.971Z,100330.31
2022-08-28T06:24:36.363Z,100328.09
2022-08-28T06:27:07.220Z,100334.63
2022-08-28T06:29:35.588Z,100331.50
2022-08-28T06:32:06.844Z,100332.75
2022-08-28T06:34:35.139Z,100335.91
2022-08-28T06:37:03.476Z,100331.69
2022-08-28T06:39:31.698Z,100336.41
2022-08-28T06:42:00.037Z,100344.03
2022-08-28T06:44:32.073Z,100345.31
2022-08-28T06:47:00.451Z,100350.31
2022-08-28T06:49:28.930Z,100351.59
2022-08-28T06:51:57.118Z,100351.25
2022-08-28T06:54:25.305Z,100351.34
2022-08-28T06:56:53.480Z,100354.38
2022-08-28T06:59:21.720Z,100354.00
2022-08-28T07:01:53.420Z,100355.03
2022-08-28T07:04:21.876Z,100358.09
2022-08-28T07:06:54.762Z,100351.25
2022-08-28T07:09:24.487Z,100354.28
2022-08-28T07:11:53.380Z,100361.97
2022-08-28T07:14:21.526Z,100361.09
2022-08-28T07:16:50.468Z,100366.00
2022-08-28T07:19:20.190Z,100380.38
2022-08-28T07:21:48.428Z,100377.09
2022-08-28T07:24:18.274Z,100375.38
2022-08-28T07:26:47.692Z,100375.34
2022-08-28T07:29:16.377Z,100383.81
2022-08-28T07:31:48.247Z,100380.47
2022-08-28T07:34:18.999Z,100392.94
2022-08-28T07:36:48.203Z,100390.44
2022-08-28T07:39:16.733Z,100384.16
2022-08-28T07:41:47.009Z,100390.38
2022-08-28T07:44:35.140Z,100401.13
2022-08-28T07:47:05.894Z,100399.75
2022-08-28T07:49:34.940Z,100399.50
2022-08-28T07:52:04.396Z,100398.25
2022-08-28T07:54:33.247Z,100397.25
2022-08-28T07:57:02.753Z,100407.22
2022-08-28T07:59:36.510Z,100411.22
2022-08-28T08:02:06.861Z,100413.34
2022-08-28T08:04:35.391Z,100414.94
2022-08-28T08:07:07.835Z,100413.88
2022-08-28T08:09:44.351Z,100406.41
2022-08-28T08:12:14.370Z,100414.13
2022-08-28T08:14:43.811Z,100412.25
2022-08-28T08:17:15.139Z,100410.56
2022-08-28T08:19:43.388Z,100418.38
2022-08-28T08:22:11.659Z,100422.78
2022-08-28T08:24:39.847Z,100425.34
2022-08-28T08:27:08.026Z,100433.16
2022-08-28T08:29:37.750Z,100428.28
2022-08-28T08:32:09.469Z,100423.72
2022-08-28T08:34:43.586Z,100421.03
2022-08-28T08:37:13.412Z,100423.28
2022-08-28T08:39:43.213Z,100425.78
2022-08-28T08:42:33.282Z,100429.00
2022-08-28T08:45:05.892Z,100423.31
2022-08-28T08:47:55.936Z,100425.94
2022-08-28T08:50:34.322Z,100416.25
2022-08-28T08:53:24.509Z,100417.03
2022-08-28T08:55:54.986Z,100423.53
2022-08-28T08:58:31.685Z,100418.81
2022-08-28T09:01:23.557Z,100417.09
2022-08-28T09:04:22.975Z,100413.06
2022-08-28T09:06:56.628Z,100411.53
2022-08-28T09:09:47.040Z,100411.41
2022-08-28T09:12:24.749Z,100406.31
2022-08-28T09:15:10.578Z,100409.78
2022-08-28T09:17:53.404Z,100413.31
2022-08-28T09:20:30.233Z,100409.50
2022-08-28T09:23:02.098Z,100402.69
2022-08-28T09:25:45.196Z,100403.44
2022-08-28T09:28:31.919Z,100408.53
2022-08-28T09:31:08.430Z,100403.38
2022-08-28T09:33:47.744Z,100413.03
2022-08-28T09:36:37.068Z,100411.34
2022-08-28T09:39:13.456Z,100412.53
2022-08-28T09:42:20.723Z,100405.53
2022-08-28T09:44:56.515Z,100406.25
2022-08-28T09:47:46.292Z,100400.84
2022-08-28T09:50:18.060Z,100411.41
2022-08-28T09:52:46.394Z,100411.34
2022-08-28T09:55:31.895Z,100413.63
2022-08-28T09:58:00.903Z,100411.13
2022-08-28T10:00:34.367Z,100409.38
2022-08-28T10:03:26.015Z,100416.19
2022-08-28T10:05:54.171Z,100423.34
2022-08-28T10:08:55.202Z,100422.75
2022-08-28T10:11:31.338Z,100420.13
2022-08-28T10:14:14.263Z,100413.34
2022-08-28T10:16:55.083Z,100422.06
2022-08-28T10:20:07.407Z,100418.59
2022-08-28T10:22:57.195Z,100420.88
2022-08-28T10:25:43.347Z,100411.31
2022-08-28T10:28:26.637Z,100417.03
2022-08-28T10:30:57.930Z,100417.38
2022-08-28T10:33:28.858Z,100420.59
2022-08-28T10:36:34.267Z,100409.28
2022-08-28T10:39:22.516Z,100410.31
2022-08-28T10:41:54.893Z,100397.34
2022-08-28T10:44:33.249Z,100400.13
2022-08-28T10:47:05.391Z,100400.72
2022-08-28T10:49:41.577Z,100404.00
2022-08-28T10:52:28.745Z,100405.38
2022-08-28T10:55:16.766Z,100403.94
2022-08-28T10:58:03.499Z,100407.53
2022-08-28T11:00:32.434Z,100401.56
2022-08-28T11:03:03.452Z,100399.72
2022-08-28T11:05:52.465Z,100401.63
2022-08-28T11:08:27.725Z,100403.25
2022-08-28T11:10:58.803Z,100400.91
2022-08-28T11:13:59.691Z,100402.78
2022-08-28T11:16:31.238Z,100403.94
2022-08-28T11:19:18.033Z,100402.88
2022-08-28T11:22:04.496Z,100405.28
2022-08-28T11:24:47.556Z,100401.13
2022-08-28T11:27:29.417Z,100407.03
2022-08-28T11:30:29.834Z,100398.31
2022-08-28T11:33:01.458Z,100408.06
2022-08-28T11:35:50.871Z,100405.88
2022-08-28T11:38:40.684Z,100399.78
2022-08-28T11:41:23.080Z,100407.59
2022-08-28T11:44:05.231Z,100406.97
2022-08-28T11:46:36.293Z,100406.28
2022-08-28T11:49:26.341Z,100404.56
2022-08-28T11:52:03.425Z,100402.44
2022-08-28T11:55:06.762Z,100395.19
2022-08-28T11:57:55.233Z,100385.75
2022-08-28T12:00:38.802Z,100387.09
2022-08-28T12:03:31.358Z,100385.94
2022-08-28T12:06:01.338Z,100370.59
2022-08-28T12:09:01.121Z,100369.69
2022-08-28T12:11:41.137Z,100370.19
2022-08-28T12:14:33.579Z,100357.75
2022-08-28T12:17:17.876Z,100366.69
2022-08-28T12:20:10.008Z,100364.91
2022-08-28T12:22:59.418Z,100354.84
2022-08-28T12:25:33.924Z,100349.84
2022-08-28T12:28:26.098Z,100341.78
2022-08-28T12:31:19.438Z,100346.22
2022-08-28T12:33:53.304Z,100340.63
2022-08-28T12:36:26.756Z,100343.97
2022-08-28T12:38:58.448Z,100341.16
2022-08-28T12:41:27.106Z,100332.63
2022-08-28T12:43:58.565Z,100330.88
2022-08-28T12:46:31.177Z,100335.50
2022-08-28T12:49:05.530Z,100341.53
2022-08-28T12:51:36.139Z,100331.50
2022-08-28T12:54:07.440Z,100335.47
2022-08-28T12:56:41.271Z,100331.22
2022-08-28T12:59:38.574Z,100325.81
2022-08-28T13:02:20.890Z,100329.47
2022-08-28T13:05:00.901Z,100337.25
2022-08-28T13:07:46.264Z,100330.06
2022-08-28T13:10:30.927Z,100326.81
2022-08-28T13:13:07.036Z,100331.00
2022-08-28T13:15:52.165Z,100326.38
2022-08-28T13:18:42.599Z,100315.41
2022-08-28T13:21:28.660Z,100312.41
2022-08-28T13:24:26.216Z,100304.44
2022-08-28T13:27:23.351Z,100301.50
2022-08-28T13:30:14.635Z,100298.06
2022-08-28T13:33:02.594Z,100296.00
2022-08-28T13:35:40.094Z,100295.66
2022-08-28T13:38:13.018Z,100298.66
2022-08-28T13:41:02.285Z,100286.44
2022-08-28T13:43:44.741Z,100299.25
2022-08-28T13:46:13.543Z,100295.06
2022-08-28T13:48:41.851Z,100294.50
2022-08-28T13:51:19.015Z,100292.13
2022-08-28T13:53:50.481Z,100296.44
2022-08-28T13:56:21.961Z,100302.53
2022-08-28T13:58:57.474Z,100294.38
2022-08-28T14:01:49.224Z,100312.09
2022-08-28T14:04:20.511Z,100294.00
2022-08-28T14:06:48.843Z,100293.69
2022-08-28T14:09:17.684Z,100289.34
2022-08-28T14:11:47.647Z,100290.59
2022-08-28T14:14:16.922Z,100293.16
2022-08-28T14:16:45.780Z,100296.66
2022-08-28T14:19:14.263Z,100292.19
2022-08-28T14:21:42.605Z,100301.16
2022-08-28T14:24:10.964Z,100299.00
2022-08-28T14:26:39.847Z,100299.50
2022-08-28T14:29:10.424Z,100293.81
2022-08-28T14:31:41.090Z,100295.66
2022-08-28T14:34:11.581Z,100294.25
2022-08-28T14:36:41.558Z,100298.56
2022-08-28T14:39:11.952Z,100299.34
2022-08-28T14:41:46.178Z,100299.31
2022-08-28T14:44:15.007Z,100294.16
2022-08-28T14:46:45.408Z,100295.47
2022-08-28T14:49:15.100Z,100294.25
2022-08-28T14:51:44.886Z,100285.31
2022-08-28T14:54:17.040Z,100291.69
2022-08-28T14:56:46.576Z,100284.09
2022-08-28T14:59:23.793Z,100285.47
2022-08-28T15:01:55.567Z,100280.81
2022-08-28T15:04:26.090Z,100295.66
2022-08-28T15:06:59.262Z,100286.47
2022-08-28T15:09:27.779Z,100295.66
2022-08-28T15:11:56.135Z,100296.28
2022-08-28T15:14:24.363Z,100307.66
2022-08-28T15:16:53.498Z,100307.47
2022-08-28T15:19:23.353Z,100312.88
2022-08-28T15:21:54.759Z,100311.53
2022-08-28T15:24:26.466Z,100317.44
2022-08-28T15:26:55.434Z,100319.31
2022-08-28T15:29:23.646Z,100312.22
2022-08-28T15:31:52.751Z,100311.50
2022-08-28T15:34:24.254Z,100307.72
2022-08-28T15:36:55.707Z,100318.25
2022-08-28T15:39:45.508Z,100312.72
2022-08-28T15:42:14.818Z,100325.03
2022-08-28T15:44:43.305Z,100321.50
2022-08-28T15:47:13.772Z,100314.75
2022-08-28T15:49:49.660Z,100320.13
2022-08-28T15:52:19.334Z,100323.06
2022-08-28T15:54:48.558Z,100319.28
2022-08-28T15:57:16.970Z,100312.28
2022-08-28T15:59:50.039Z,100310.38
2022-08-28T16:02:25.470Z,100307.69
2022-08-28T16:04:54.368Z,100313.59
2022-08-28T16:07:24.327Z,100309.31
2022-08-28T16:09:52.960Z,100306.09
2022-08-28T16:12:21.167Z,100303.59
2022-08-28T16:14:50.371Z,100301.47
2022-08-28T16:17:19.989Z,100301.13
2022-08-28T16:19:48.424Z,100296.00
2022-08-28T16:22:17.102Z,100302.69
2022-08-28T16:24:46.288Z,100294.63
2022-08-28T16:30:03.759Z,100294.28
2022-08-28T16:32:31.899Z,100291.84
2022-08-28T16:35:03.968Z,100288.31
2022-08-28T16:35:54.802Z,100291.38
2022-08-28T16:37:39.669Z,100288.25
2022-08-28T16:40:09.692Z,100286.91
2022-08-28T16:42:37.964Z,100294.94
2022-08-28T16:45:07.516Z,100293.00
2022-08-28T16:47:39.066Z,100297.00
2022-08-28T16:50:11.854Z,100297.22
2022-08-28T16:52:41.104Z,100296.97
2022-08-28T16:55:11.383Z,100295.84
2022-08-28T16:57:39.696Z,100297.16
2022-08-28T17:00:13.469Z,100296.00
2022-08-28T17:02:43.316Z,100302.00
2022-08-28T17:05:13.120Z,100303.69
2022-08-28T17:07:41.670Z,100296.47
2022-08-28T17:10:12.586Z,100300.16
2022-08-28T17:12:41.687Z,100306.97
2022-08-28T17:15:11.368Z,100312.72
2022-08-28T17:17:40.775Z,100311.19
2022-08-28T17:20:30.593Z,100326.28
2022-08-28T17:22:58.832Z,100330.69
2022-08-28T17:25:27.200Z,100334.09
2022-08-28T17:27:55.598Z,100339.38
2022-08-28T17:30:23.971Z,100338.72
2022-08-28T17:32:52.256Z,100345.63
2022-08-28T17:35:21.102Z,100360.00
2022-08-28T17:37:53.732Z,100356.09
2022-08-28T17:40:22.665Z,100360.88
2022-08-28T17:42:53.727Z,100363.47
2022-08-28T17:45:23.427Z,100369.19
2022-08-28T17:47:52.777Z,100378.44
2022-08-28T17:50:21.945Z,100381.13
2022-08-28T17:52:50.241Z,100390.84
2022-08-28T17:55:21.086Z,100383.63
2022-08-28T17:57:49.258Z,100388.09
2022-08-28T18:00:18.360Z,100390.19
2022-08-28T18:02:49.527Z,100393.69
2022-08-28T18:05:18.090Z,100394.47
2022-08-28T18:07:46.392Z,100394.47
2022-08-28T18:10:15.414Z,100400.63
2022-08-28T18:12:43.645Z,100395.16
2022-08-28T18:15:13.628Z,100394.09
2022-08-28T18:17:42.841Z,100397.56
2022-08-28T18:20:11.882Z,100404.06
2022-08-28T18:22:40.261Z,100406.22
2022-08-28T18:25:08.821Z,100413.31
2022-08-28T18:27:37.068Z,100408.06
2022-08-28T18:30:05.629Z,100404.88
2022-08-28T18:32:34.099Z,100409.50
2022-08-28T18:35:02.372Z,100417.41
2022-08-28T18:37:32.876Z,100411.31
2022-08-28T18:40:01.595Z,100412.44
2022-08-28T18:42:30.255Z,100424.16
2022-08-28T18:44:58.843Z,100424.84
2022-08-28T18:47:27.139Z,100425.75
2022-08-28T18:49:58.152Z,100431.34
2022-08-28T18:52:26.471Z,100430.13
2022-08-28T18:54:54.668Z,100432.19
2022-08-28T18:57:28.798Z,100441.09
2022-08-28T18:59:57.389Z,100444.22
2022-08-28T19:02:27.073Z,100442.34
2022-08-28T19:04:55.378Z,100444.44
2022-08-28T19:07:23.784Z,100440.81
2022-08-28T19:09:51.956Z,100442.47
2022-08-28T19:12:20.095Z,100446.22
2022-08-28T19:14:48.323Z,100447.47
2022-08-28T19:17:20.535Z,100445.00
2022-08-28T19:19:49.572Z,100447.69
2022-08-28T19:22:18.075Z,100456.53
2022-08-28T19:24:46.661Z,100453.72
2022-08-28T19:27:15.548Z,100458.22
2022-08-28T19:29:43.808Z,100459.28
2022-08-28T19:32:12.008Z,100466.69
2022-08-28T19:34:40.220Z,100469.59
2022-08-28T19:37:08.428Z,100470.41
2022-08-28T19:39:36.675Z,100482.13
2022-08-28T19:42:05.128Z,100480.22
2022-08-28T19:44:33.336Z,100487.50
2022-08-28T19:47:01.919Z,100496.66
2022-08-28T19:49:30.139Z,100501.94
2022-08-28T19:51:59.206Z,100505.00
2022-08-28T19:54:27.638Z,100507.47
2022-08-28T19:56:56.115Z,100519.13
2022-08-28T19:59:27.115Z,100525.25
2022-08-28T20:01:55.667Z,100527.25
2022-08-28T20:04:26.659Z,100522.63
2022-08-28T20:06:55.000Z,100523.69
2022-08-28T20:09:23.770Z,100539.56
2022-08-28T20:11:53.175Z,100543.38
2022-08-28T20:14:21.928Z,100541.38
2022-08-28T20:16:51.431Z,100536.59
2022-08-28T20:19:20.849Z,100531.41
2022-08-28T20:21:50.127Z,100530.53
2022-08-28T20:24:23.603Z,100528.81
2022-08-28T20:26:53.150Z,100527.34
2022-08-28T20:29:21.936Z,100520.03
2022-08-28T20:31:50.281Z,100519.88
2022-08-28T20:34:20.430Z,100520.56
2022-08-28T20:36:48.892Z,100532.97
2022-08-28T20:39:20.294Z,100533.03
2022-08-28T20:41:49.388Z,100532.75
2022-08-28T20:44:19.964Z,100515.28
2022-08-28T20:46:51.491Z,100517.16
2022-08-28T20:49:23.866Z,100503.25
2022-08-28T20:51:58.825Z,100501.31
2022-08-28T20:54:46.054Z,100505.75
2022-08-28T20:57:19.794Z,100498.84
2022-08-28T20:59:48.464Z,100506.88
2022-08-28T21:02:22.670Z,100495.00
2022-08-28T21:04:52.093Z,100505.09
2022-08-28T21:07:22.248Z,100501.81
2022-08-28T21:10:05.087Z,100506.72
2022-08-28T21:12:42.649Z,100505.91
2022-08-28T21:15:12.998Z,100518.09
2022-08-28T21:17:42.000Z,100519.16
2022-08-28T21:20:14.881Z,100530.06
2022-08-28T21:22:43.526Z,100525.97
2022-08-28T21:25:13.392Z,100519.44
2022-08-28T21:27:42.176Z,100530.94
2022-08-28T21:30:13.442Z,100541.19
2022-08-28T21:32:42.145Z,100549.78
2022-08-28T21:35:12.357Z,100550.63
2022-08-28T21:37:42.095Z,100552.69
2022-08-28T21:40:12.750Z,100559.28
2022-08-28T21:42:41.595Z,100559.91
2022-08-28T21:45:12.180Z,100554.31
2022-08-28T21:47:41.785Z,100554.88
2022-08-28T21:50:11.236Z,100556.91
2022-08-28T21:52:39.606Z,100544.56
2022-08-28T21:55:11.779Z,100552.16
2022-08-28T21:57:42.914Z,100560.16
2022-08-28T22:00:18.066Z,100565.72
2022-08-28T22:02:47.273Z,100566.34
2022-08-28T22:05:16.296Z,100572.94
2022-08-28T22:07:45.122Z,100570.09
2022-08-28T22:10:14.022Z,100570.50
2022-08-28T22:12:42.228Z,100572.78
2022-08-28T22:15:10.656Z,100572.81
2022-08-28T22:17:38.815Z,100562.97
2022-08-28T22:20:07.473Z,100553.72
2022-08-28T22:22:54.093Z,100551.31
2022-08-28T22:25:22.347Z,100569.09
2022-08-28T22:27:50.580Z,100569.53
2022-08-28T22:30:19.928Z,100570.16
2022-08-28T22:32:48.215Z,100581.63
2022-08-28T22:35:18.828Z,100578.16
2022-08-28T22:37:47.591Z,100578.13
2022-08-28T22:40:15.956Z,100589.19
2022-08-28T22:42:44.532Z,100590.00
2022-08-28T22:45:13.090Z,100596.41
2022-08-28T22:47:41.308Z,100612.50
2022-08-28T22:50:10.536Z,100616.44
2022-08-28T22:52:39.092Z,100617.88
2022-08-28T22:55:13.079Z,100606.97
2022-08-28T22:57:41.774Z,100599.22
2022-08-28T23:00:16.596Z,100596.16
2022-08-28T23:02:45.240Z,100608.66
2022-08-28T23:05:14.489Z,100616.06
2022-08-28T23:07:45.724Z,100614.84
2022-08-28T23:10:15.897Z,100627.13
2022-08-28T23:12:44.380Z,100621.38
2022-08-28T23:15:16.812Z,100618.72
2022-08-28T23:17:45.534Z,100618.53
2022-08-28T23:20:18.624Z,100624.88
2022-08-28T23:22:48.457Z,100622.00
2022-08-28T23:25:20.487Z,100622.81
2022-08-28T23:27:50.013Z,100622.59
2022-08-28T23:30:19.518Z,100617.91
2022-08-28T23:32:47.839Z,100620.50
2022-08-28T23:35:17.203Z,100616.00
2022-08-28T23:37:48.930Z,100628.72
2022-08-28T23:40:23.221Z,100627.47
2022-08-28T23:42:52.821Z,100631.38
2022-08-28T23:45:21.805Z,100627.66
2022-08-28T23:47:51.270Z,100628.28
2022-08-28T23:50:22.588Z,100626.84
2022-08-28T23:52:52.238Z,100620.06
2022-08-28T23:55:20.861Z,100620.25
2022-08-28T23:57:52.303Z,100623.09
